Terminal Aerodrome Forecast
Issued by NWS

Home | Current Version | Previous Version | Text Only | Print | Product List | Glossary On
Versions: 1 2 3 4 5 6 7 8 9 10 11 12 13 14 15
168
FTUS43 KAPX 070128 AAA
TAFTVC
TAF AMD
KTVC 070128Z 0701/0724 VRB04KT P6SM BKN022 OVC120
     FM070210 19006KT P6SM OVC100
     FM070900 19006KT P6SM OVC080 WS020/21032KT
     FM071600 17009KT 6SM BR OVC015=

USA.gov is the U.S. government's official web portal to all federal, state and local government web resources and services.